createdAt,value
2018-12-12T00:01:12.466Z,10.43
2018-12-12T00:03:42.116Z,10.25
2018-12-12T00:06:11.775Z,10.95
2018-12-12T00:08:41.541Z,11.00
2018-12-12T00:11:11.255Z,10.43
2018-12-12T00:13:41.005Z,11.75
2018-12-12T00:16:10.677Z,10.95
2018-12-12T00:18:40.383Z,11.20
2018-12-12T00:21:10.008Z,10.78
2018-12-12T00:23:39.782Z,10.15
2018-12-12T00:26:09.525Z,9.80
2018-12-12T00:28:39.305Z,10.58
2018-12-12T00:31:09.031Z,9.78
2018-12-12T00:33:38.706Z,10.58
2018-12-12T00:36:08.352Z,9.55
2018-12-12T00:38:37.931Z,10.05
2018-12-12T00:41:07.672Z,9.73
2018-12-12T00:43:37.269Z,9.78
2018-12-12T00:46:06.835Z,10.15
2018-12-12T00:48:36.663Z,9.80
2018-12-12T00:51:06.363Z,9.45
2018-12-12T00:53:36.764Z,10.03
2018-12-12T00:56:06.372Z,9.35
2018-12-12T00:58:36.262Z,9.93
2018-12-12T01:01:05.877Z,10.82
2018-12-12T01:03:35.477Z,11.80
2018-12-12T01:06:05.063Z,11.12
2018-12-12T01:08:34.752Z,9.83
2018-12-12T01:11:09.577Z,10.65
2018-12-12T01:13:39.172Z,10.75
2018-12-12T01:16:08.742Z,10.65
2018-12-12T01:18:38.338Z,11.50
2018-12-12T01:21:07.964Z,9.93
2018-12-12T01:23:37.766Z,11.08
2018-12-12T01:26:07.447Z,10.50
2018-12-12T01:28:37.167Z,9.70
2018-12-12T01:31:06.898Z,9.23
2018-12-12T01:33:36.547Z,10.65
2018-12-12T01:36:06.272Z,10.72
2018-12-12T01:38:35.843Z,12.28
2018-12-12T01:41:05.466Z,12.88
2018-12-12T01:43:35.276Z,13.15
2018-12-12T01:46:05.022Z,15.63
2018-12-12T01:48:34.824Z,14.90
2018-12-12T01:51:04.487Z,12.63
2018-12-12T01:53:34.356Z,14.03
2018-12-12T01:56:03.973Z,12.35
2018-12-12T01:58:33.691Z,11.40
2018-12-12T02:01:03.407Z,12.47
2018-12-12T02:03:32.965Z,10.70
2018-12-12T02:06:02.664Z,11.12
2018-12-12T02:08:36.439Z,11.63
2018-12-12T02:11:06.565Z,10.43
2018-12-12T02:13:38.663Z,10.20
2018-12-12T02:16:09.910Z,10.85
2018-12-12T02:18:41.665Z,11.38
2018-12-12T02:21:11.583Z,11.57
2018-12-12T02:23:41.785Z,11.68
2018-12-12T02:26:11.692Z,12.70
2018-12-12T02:28:42.128Z,13.45
2018-12-12T02:31:12.789Z,11.45
2018-12-12T02:33:42.921Z,12.95
2018-12-12T02:36:12.995Z,13.22
2018-12-12T02:38:43.240Z,13.75
2018-12-12T02:41:14.095Z,13.80
2018-12-12T02:43:44.142Z,12.43
2018-12-12T02:46:14.308Z,11.68
2018-12-12T02:48:44.314Z,12.28
2018-12-12T02:51:14.522Z,13.13
2018-12-12T02:53:44.458Z,14.65
2018-12-12T02:56:15.926Z,12.30
2018-12-12T02:58:47.079Z,10.53
2018-12-12T03:01:16.916Z,13.10
2018-12-12T03:03:46.952Z,11.90
2018-12-12T03:06:17.238Z,10.80
2018-12-12T03:08:47.147Z,10.98
2018-12-12T03:11:21.466Z,10.63
2018-12-12T03:13:52.247Z,9.75
2018-12-12T03:16:22.345Z,11.35
2018-12-12T03:18:52.287Z,10.78
2018-12-12T03:21:22.127Z,10.70
2018-12-12T03:23:51.867Z,10.72
2018-12-12T03:26:21.515Z,11.25
2018-12-12T03:28:51.363Z,11.20
2018-12-12T03:31:22.053Z,11.12
2018-12-12T03:33:52.931Z,10.23
2018-12-12T03:36:22.572Z,10.40
2018-12-12T03:38:52.159Z,11.15
2018-12-12T03:41:22.611Z,11.57
2018-12-12T03:43:52.335Z,11.30
2018-12-12T03:46:21.941Z,11.43
2018-12-12T03:48:51.996Z,12.58
2018-12-12T03:51:21.590Z,12.90
2018-12-12T03:53:51.169Z,11.55
2018-12-12T03:56:20.929Z,12.23
2018-12-12T03:58:50.599Z,12.33
2018-12-12T04:01:20.300Z,12.60
2018-12-12T04:03:49.957Z,11.68
2018-12-12T04:06:19.564Z,11.75
2018-12-12T04:08:49.204Z,12.68
2018-12-12T04:11:18.820Z,11.97
2018-12-12T04:13:48.755Z,13.10
2018-12-12T04:16:18.674Z,12.78
2018-12-12T04:18:48.968Z,13.05
2018-12-12T04:21:18.947Z,12.55
2018-12-12T04:26:30.167Z,11.60
2018-12-12T04:29:00.142Z,11.20
2018-12-12T04:31:33.732Z,12.28
2018-12-12T04:34:03.487Z,12.70
2018-12-12T04:36:33.147Z,13.20
2018-12-12T04:39:02.990Z,13.40
2018-12-12T04:41:32.622Z,13.45
2018-12-12T04:44:02.272Z,12.33
2018-12-12T04:46:34.552Z,13.00
2018-12-12T04:49:04.211Z,13.15
2018-12-12T04:51:34.077Z,13.68
2018-12-12T04:54:03.755Z,13.13
2018-12-12T04:56:33.387Z,15.38
2018-12-12T04:59:03.330Z,15.58
2018-12-12T05:01:34.155Z,14.98
2018-12-12T05:04:03.971Z,15.00
2018-12-12T05:06:33.872Z,14.05
2018-12-12T05:09:04.523Z,14.33
2018-12-12T05:11:34.419Z,13.93
2018-12-12T05:14:04.470Z,14.13
2018-12-12T05:16:34.184Z,14.10
2018-12-12T05:19:03.873Z,14.05
2018-12-12T05:21:33.713Z,13.35
2018-12-12T05:24:03.325Z,11.57
2018-12-12T05:26:33.064Z,11.35
2018-12-12T05:29:02.654Z,10.82
2018-12-12T05:31:32.263Z,10.18
2018-12-12T05:34:02.312Z,10.43
2018-12-12T05:36:32.062Z,10.38
2018-12-12T05:39:01.796Z,11.33
2018-12-12T05:41:31.462Z,10.75
2018-12-12T05:44:01.065Z,10.25
2018-12-12T05:46:30.698Z,10.05
2018-12-12T05:49:01.113Z,11.65
2018-12-12T05:51:30.717Z,12.05
2018-12-12T05:54:01.071Z,13.05
2018-12-12T05:56:31.261Z,11.78
2018-12-12T05:59:01.849Z,13.98
2018-12-12T06:01:31.666Z,17.65
2018-12-12T06:04:01.383Z,13.78
2018-12-12T06:06:31.151Z,12.68
2018-12-12T06:09:00.812Z,13.35
2018-12-12T06:11:30.578Z,13.88
2018-12-12T06:14:00.250Z,13.08
2018-12-12T06:16:30.711Z,14.18
2018-12-12T06:19:00.807Z,12.85
2018-12-12T06:21:31.115Z,12.55
2018-12-12T06:24:01.211Z,12.43
2018-12-12T06:26:37.146Z,13.68
2018-12-12T06:29:03.977Z,13.58
2018-12-12T06:31:34.107Z,12.28
2018-12-12T06:34:04.335Z,13.40
2018-12-12T06:36:35.151Z,15.70
2018-12-12T06:39:07.960Z,13.28
2018-12-12T06:41:37.875Z,15.28
2018-12-12T06:44:08.079Z,13.40
2018-12-12T06:46:38.331Z,17.27
2018-12-12T06:49:08.513Z,13.35
2018-12-12T06:51:38.835Z,12.60
2018-12-12T06:54:08.768Z,13.58
2018-12-12T06:56:39.771Z,14.98
2018-12-12T06:59:09.620Z,14.68
2018-12-12T07:01:40.093Z,17.00
2018-12-12T07:04:10.035Z,15.93
2018-12-12T07:06:40.215Z,15.55
2018-12-12T07:09:11.402Z,17.80
2018-12-12T07:11:41.618Z,13.95
2018-12-12T07:14:11.550Z,14.63
2018-12-12T07:16:41.745Z,14.50
2018-12-12T07:19:12.098Z,14.85
2018-12-12T07:21:42.150Z,14.68
2018-12-12T07:24:12.181Z,14.10
2018-12-12T07:26:42.592Z,10.00
2018-12-12T07:29:12.944Z,10.00
2018-12-12T07:31:43.172Z,11.70
2018-12-12T07:34:13.227Z,12.13
2018-12-12T07:36:43.233Z,12.63
2018-12-12T07:39:17.948Z,13.70
2018-12-12T07:41:45.568Z,11.73
2018-12-12T07:44:16.183Z,12.47
2018-12-12T07:46:46.526Z,12.17
2018-12-12T07:49:16.677Z,11.23
2018-12-12T07:51:46.751Z,10.65
2018-12-12T07:54:16.733Z,10.05
2018-12-12T07:56:46.563Z,11.25
2018-12-12T07:59:16.780Z,10.53
2018-12-12T08:01:46.820Z,10.63
2018-12-12T08:04:16.985Z,9.80
2018-12-12T08:06:47.347Z,10.85
2018-12-12T08:09:17.332Z,13.35
2018-12-12T08:11:48.225Z,10.93
2018-12-12T08:14:18.926Z,12.10
2018-12-12T08:16:48.980Z,11.90
2018-12-12T08:19:19.341Z,10.25
2018-12-12T08:21:49.361Z,10.80
2018-12-12T08:24:19.544Z,11.43
2018-12-12T08:26:50.489Z,9.80
2018-12-12T08:29:20.445Z,12.05
2018-12-12T08:31:50.779Z,10.43
2018-12-12T08:34:21.254Z,11.38
2018-12-12T08:36:52.339Z,10.63
2018-12-12T08:39:22.445Z,11.97
2018-12-12T08:41:52.747Z,13.00
2018-12-12T08:44:22.715Z,12.20
2018-12-12T08:46:52.755Z,12.10
2018-12-12T08:49:24.159Z,10.80
2018-12-12T08:51:55.084Z,10.60
2018-12-12T08:54:26.169Z,11.18
2018-12-12T08:56:56.511Z,11.28
2018-12-12T08:59:26.963Z,11.15
2018-12-12T09:01:57.647Z,11.90
2018-12-12T09:04:28.188Z,11.10
2018-12-12T09:06:58.076Z,11.60
2018-12-12T09:09:29.257Z,12.35
2018-12-12T09:11:59.521Z,12.53
2018-12-12T09:14:29.351Z,11.90
2018-12-12T09:16:59.492Z,11.33
2018-12-12T09:19:29.292Z,9.55
2018-12-12T09:21:59.340Z,11.77
2018-12-12T09:24:30.403Z,11.37
2018-12-12T09:27:01.146Z,10.93
2018-12-12T09:29:31.243Z,14.77
2018-12-12T09:32:02.271Z,11.60
2018-12-12T09:34:32.427Z,12.10
2018-12-12T09:37:04.258Z,11.20
2018-12-12T09:39:35.711Z,10.35
2018-12-12T09:42:06.316Z,9.20
2018-12-12T09:44:36.652Z,11.20
2018-12-12T09:47:09.374Z,11.93
2018-12-12T09:49:40.160Z,11.20
2018-12-12T09:52:10.242Z,24.20
2018-12-12T09:54:41.100Z,11.00
2018-12-12T09:57:11.085Z,8.95
2018-12-12T09:59:41.679Z,9.30
2018-12-12T10:02:11.866Z,8.13
2018-12-12T10:04:42.323Z,8.17
2018-12-12T10:07:12.814Z,9.80
2018-12-12T10:09:42.682Z,7.70
2018-12-12T10:12:14.142Z,9.20
2018-12-12T10:14:44.829Z,8.27
2018-12-12T10:17:15.080Z,8.47
2018-12-12T10:19:45.107Z,9.20
2018-12-12T10:22:15.583Z,8.70
2018-12-12T10:24:46.439Z,7.30
2018-12-12T10:27:16.761Z,7.10
2018-12-12T10:29:47.871Z,7.43
2018-12-12T10:32:18.502Z,7.60
2018-12-12T10:34:49.383Z,7.83
2018-12-12T10:37:19.733Z,8.57
2018-12-12T10:39:50.414Z,7.33
2018-12-12T10:42:20.687Z,8.80
2018-12-12T10:44:50.760Z,6.60
2018-12-12T10:47:21.911Z,7.30
2018-12-12T10:49:52.106Z,7.53
2018-12-12T10:52:22.077Z,8.25
2018-12-12T10:54:52.691Z,8.30
2018-12-12T10:57:23.168Z,8.58
2018-12-12T10:59:53.031Z,6.23
2018-12-12T11:02:28.411Z,6.17
2018-12-12T11:04:58.261Z,5.42
2018-12-12T11:07:28.475Z,11.30
2018-12-12T11:09:59.247Z,7.60
2018-12-12T11:12:29.369Z,6.20
2018-12-12T11:15:00.489Z,6.17
2018-12-12T11:17:30.984Z,6.10
2018-12-12T11:20:01.054Z,5.83
2018-12-12T11:22:31.819Z,6.23
2018-12-12T11:25:02.283Z,5.90
2018-12-12T11:27:34.200Z,5.73
2018-12-12T11:30:05.050Z,6.70
2018-12-12T11:32:35.239Z,8.57
2018-12-12T11:35:05.890Z,5.10
2018-12-12T11:37:36.506Z,6.43
2018-12-12T11:40:08.294Z,5.33
2018-12-12T11:42:38.562Z,5.17
2018-12-12T11:45:09.282Z,5.97
2018-12-12T11:47:41.703Z,4.50
2018-12-12T11:50:11.751Z,5.37
2018-12-12T11:52:42.380Z,5.93
2018-12-12T11:55:16.786Z,4.43
2018-12-12T11:57:47.335Z,4.30
2018-12-12T12:00:19.231Z,5.20
2018-12-12T12:02:49.356Z,6.27
2018-12-12T12:05:18.998Z,6.27
2018-12-12T12:07:48.711Z,4.90
2018-12-12T12:10:18.195Z,6.30
2018-12-12T12:12:48.174Z,5.83
2018-12-12T12:15:17.943Z,7.47
2018-12-12T12:17:48.004Z,5.50
2018-12-12T12:20:18.019Z,6.10
2018-12-12T12:22:47.916Z,5.60
2018-12-12T12:25:18.109Z,6.60
2018-12-12T12:27:48.271Z,5.97
2018-12-12T12:30:18.868Z,8.00
2018-12-12T12:32:52.210Z,7.10
2018-12-12T12:35:22.778Z,6.03
2018-12-12T12:37:52.978Z,5.90
2018-12-12T12:40:22.831Z,5.65
2018-12-12T12:42:54.136Z,6.30
2018-12-12T12:45:26.620Z,4.97
2018-12-12T12:47:57.136Z,9.08
2018-12-12T12:50:27.840Z,6.42
2018-12-12T12:52:57.651Z,6.90
2018-12-12T12:55:27.775Z,8.00
2018-12-12T12:57:58.539Z,7.12
2018-12-12T13:00:29.598Z,10.58
2018-12-12T13:02:59.926Z,8.63
2018-12-12T13:05:30.757Z,8.63
2018-12-12T13:08:00.621Z,6.55
2018-12-12T13:10:32.185Z,6.00
2018-12-12T13:13:04.932Z,6.35
2018-12-12T13:15:35.780Z,6.60
2018-12-12T13:18:05.680Z,6.00
2018-12-12T13:20:36.873Z,5.85
2018-12-12T13:23:06.921Z,7.45
2018-12-12T13:25:36.952Z,7.33
2018-12-12T13:28:07.567Z,6.62
2018-12-12T13:30:37.838Z,8.15
2018-12-12T13:33:07.801Z,8.80
2018-12-12T13:35:37.630Z,8.73
2018-12-12T13:38:07.672Z,8.53
2018-12-12T13:40:37.504Z,9.30
2018-12-12T13:43:09.380Z,7.92
2018-12-12T13:45:39.097Z,8.48
2018-12-12T13:48:09.275Z,8.95
2018-12-12T13:50:41.209Z,7.62
2018-12-12T13:53:11.243Z,7.62
2018-12-12T13:55:40.863Z,8.38
2018-12-12T13:58:10.559Z,9.10
2018-12-12T14:00:41.990Z,8.75
2018-12-12T14:03:11.824Z,8.08
2018-12-12T14:05:41.572Z,8.58
2018-12-12T14:08:11.114Z,7.55
2018-12-12T14:10:41.200Z,7.85
2018-12-12T14:13:11.051Z,6.97
2018-12-12T14:15:41.693Z,6.15
2018-12-12T14:18:11.355Z,8.18
2018-12-12T14:20:42.462Z,7.35
2018-12-12T14:23:12.123Z,8.78
2018-12-12T14:25:41.712Z,6.42
2018-12-12T14:28:11.423Z,7.45
2018-12-12T14:30:41.244Z,7.80
2018-12-12T14:33:10.828Z,9.80
2018-12-12T14:35:40.446Z,8.35
2018-12-12T14:38:10.069Z,6.87
2018-12-12T14:40:39.665Z,7.12
2018-12-12T14:43:09.300Z,6.60
2018-12-12T14:45:40.312Z,9.38
2018-12-12T14:48:10.124Z,8.70
2018-12-12T14:50:39.584Z,10.63
2018-12-12T14:53:09.457Z,11.68
2018-12-12T14:55:39.378Z,13.38
2018-12-12T14:58:09.322Z,13.32
2018-12-12T15:00:39.702Z,15.32
2018-12-12T15:03:09.652Z,13.20
2018-12-12T15:05:40.135Z,13.55
2018-12-12T15:08:10.086Z,14.78
2018-12-12T15:10:40.217Z,14.63
2018-12-12T15:13:11.033Z,13.88
2018-12-12T15:15:41.275Z,13.95
2018-12-12T15:18:12.164Z,14.33
2018-12-12T15:20:42.718Z,13.55
2018-12-12T15:23:12.609Z,12.65
2018-12-12T15:25:42.564Z,11.12
2018-12-12T15:28:16.625Z,10.15
2018-12-12T15:30:46.372Z,8.10
2018-12-12T15:33:16.299Z,7.95
2018-12-12T15:35:47.504Z,7.12
2018-12-12T15:38:17.491Z,8.05
2018-12-12T15:40:48.547Z,8.15
2018-12-12T15:43:18.824Z,9.80
2018-12-12T15:45:49.662Z,8.03
2018-12-12T15:48:19.724Z,8.73
2018-12-12T15:50:49.620Z,8.55
2018-12-12T15:53:19.507Z,7.85
2018-12-12T15:55:49.582Z,7.20
2018-12-12T15:58:19.229Z,7.65
2018-12-12T16:00:50.060Z,8.33
2018-12-12T16:03:20.087Z,7.40
2018-12-12T16:05:49.708Z,8.43
2018-12-12T16:08:19.407Z,8.88
2018-12-12T16:10:49.130Z,8.15
2018-12-12T16:13:19.023Z,7.90
2018-12-12T16:15:48.940Z,7.35
2018-12-12T16:18:18.650Z,7.75
2018-12-12T16:20:48.384Z,7.62
2018-12-12T16:23:18.167Z,7.58
2018-12-12T16:25:48.400Z,12.30
2018-12-12T16:28:18.044Z,14.30
2018-12-12T16:30:47.832Z,13.28
2018-12-12T16:33:17.405Z,12.85
2018-12-12T16:35:47.066Z,12.88
2018-12-12T16:38:16.684Z,14.53
2018-12-12T16:40:46.454Z,14.20
2018-12-12T16:43:16.935Z,12.50
2018-12-12T16:45:46.538Z,14.85
2018-12-12T16:48:16.173Z,15.25
2018-12-12T16:50:46.023Z,18.67
2018-12-12T16:53:15.786Z,18.65
2018-12-12T16:55:45.445Z,19.52
2018-12-12T16:58:17.058Z,19.85
2018-12-12T17:00:46.645Z,27.22
2018-12-12T17:03:16.336Z,32.25
2018-12-12T17:05:46.117Z,27.85
2018-12-12T17:08:15.645Z,21.65
2018-12-12T17:10:45.305Z,23.22
2018-12-12T17:13:14.890Z,16.60
2018-12-12T17:15:44.753Z,15.88
2018-12-12T17:18:14.381Z,12.00
2018-12-12T17:20:45.479Z,7.65
2018-12-12T17:23:15.217Z,10.18
2018-12-12T17:25:45.089Z,10.82
2018-12-12T17:28:16.917Z,12.33
2018-12-12T17:30:46.586Z,14.03
2018-12-12T17:33:16.297Z,8.85
2018-12-12T17:35:46.127Z,7.53
2018-12-12T17:38:16.472Z,6.05
2018-12-12T17:40:46.277Z,9.38
2018-12-12T17:43:16.073Z,8.10
2018-12-12T17:45:45.807Z,6.55
2018-12-12T17:48:15.551Z,7.08
2018-12-12T17:50:46.106Z,6.30
2018-12-12T17:53:16.082Z,6.25
2018-12-12T17:55:45.815Z,5.50
2018-12-12T17:58:15.585Z,5.85
2018-12-12T18:00:45.466Z,5.92
2018-12-12T18:03:15.352Z,5.87
2018-12-12T18:05:45.247Z,5.30
2018-12-12T18:08:14.900Z,5.17
2018-12-12T18:10:44.620Z,5.00
2018-12-12T18:13:14.896Z,5.75
2018-12-12T18:15:44.570Z,5.87
2018-12-12T18:18:14.451Z,6.50
2018-12-12T18:20:44.047Z,6.70
2018-12-12T18:23:13.834Z,6.67
2018-12-12T18:25:43.505Z,7.17
2018-12-12T18:28:13.564Z,6.95
2018-12-12T18:30:43.310Z,7.25
2018-12-12T18:33:12.933Z,6.58
2018-12-12T18:35:42.524Z,7.15
2018-12-12T18:38:12.109Z,6.83
2018-12-12T18:40:41.842Z,6.87
2018-12-12T18:43:11.522Z,8.45
2018-12-12T18:45:42.184Z,7.25
2018-12-12T18:48:11.999Z,7.78
2018-12-12T18:50:42.138Z,7.78
2018-12-12T18:53:11.837Z,7.85
2018-12-12T18:55:43.029Z,9.23
2018-12-12T18:58:13.241Z,8.75
2018-12-12T19:00:42.893Z,7.80
2018-12-12T19:03:12.658Z,8.45
2018-12-12T19:05:42.438Z,8.65
2018-12-12T19:08:13.568Z,9.15
2018-12-12T19:10:43.294Z,8.90
2018-12-12T19:13:13.066Z,9.13
2018-12-12T19:15:42.671Z,10.28
2018-12-12T19:18:12.382Z,10.18
2018-12-12T19:20:42.072Z,9.38
2018-12-12T19:23:11.957Z,8.83
2018-12-12T19:25:41.574Z,8.70
2018-12-12T19:28:12.056Z,9.28
2018-12-12T19:30:41.716Z,8.28
2018-12-12T19:33:11.342Z,9.53
2018-12-12T19:35:41.091Z,8.70
2018-12-12T19:38:10.916Z,9.23
2018-12-12T19:40:40.550Z,8.90
2018-12-12T19:43:10.326Z,12.70
2018-12-12T19:45:39.906Z,14.83
2018-12-12T19:48:09.736Z,15.28
2018-12-12T19:50:39.590Z,14.30
2018-12-12T19:53:09.311Z,14.15
2018-12-12T19:55:39.331Z,13.75
2018-12-12T19:58:08.960Z,13.78
2018-12-12T20:00:38.974Z,13.28
2018-12-12T20:03:09.032Z,11.50
2018-12-12T20:05:41.444Z,12.03
2018-12-12T20:08:10.789Z,12.05
2018-12-12T20:10:40.490Z,12.15
2018-12-12T20:13:10.401Z,12.98
2018-12-12T20:15:47.596Z,16.97
2018-12-12T20:18:17.344Z,20.08
2018-12-12T20:20:47.095Z,21.40
2018-12-12T20:23:16.950Z,22.15
2018-12-12T20:25:46.548Z,21.27
2018-12-12T20:28:16.365Z,20.90
2018-12-12T20:30:46.837Z,19.95
2018-12-12T20:33:16.719Z,20.35
2018-12-12T20:35:48.369Z,18.67
2018-12-12T20:38:18.316Z,18.12
2018-12-12T20:40:48.007Z,18.40
2018-12-12T20:43:18.243Z,17.77
2018-12-12T20:45:47.802Z,18.55
2018-12-12T20:48:18.355Z,19.60
2018-12-12T20:50:48.293Z,19.80
2018-12-12T20:53:17.983Z,19.48
2018-12-12T20:55:49.845Z,20.00
2018-12-12T20:58:19.458Z,23.55
2018-12-12T21:00:49.094Z,24.30
2018-12-12T21:03:18.954Z,20.25
2018-12-12T21:05:54.515Z,20.43
2018-12-12T21:08:23.149Z,19.65
2018-12-12T21:10:53.266Z,18.35
2018-12-12T21:13:23.866Z,15.53
2018-12-12T21:15:53.777Z,14.40
2018-12-12T21:18:23.932Z,14.30
2018-12-12T21:20:55.308Z,14.63
2018-12-12T21:23:25.160Z,13.62
2018-12-12T21:25:54.770Z,12.80
2018-12-12T21:28:25.188Z,11.70
2018-12-12T21:30:54.840Z,12.65
2018-12-12T21:33:25.401Z,10.95
2018-12-12T21:36:00.718Z,10.50
2018-12-12T21:38:27.013Z,10.68
2018-12-12T21:40:56.622Z,10.78
2018-12-12T21:43:26.801Z,10.15
2018-12-12T21:45:56.380Z,9.98
2018-12-12T21:48:25.989Z,9.78
2018-12-12T21:50:56.508Z,9.98
2018-12-12T21:53:26.652Z,10.68
2018-12-12T21:55:56.913Z,11.00
2018-12-12T21:58:26.714Z,11.83
2018-12-12T22:00:56.479Z,12.68
2018-12-12T22:03:28.406Z,13.93
2018-12-12T22:06:07.351Z,15.20
2018-12-12T22:08:33.747Z,15.90
2018-12-12T22:11:04.302Z,14.13
2018-12-12T22:13:33.798Z,13.38
2018-12-12T22:16:03.421Z,13.58
2018-12-12T22:18:32.992Z,14.47
2018-12-12T22:21:03.105Z,12.73
2018-12-12T22:23:32.821Z,12.05
2018-12-12T22:26:02.611Z,11.78
2018-12-12T22:28:32.204Z,10.50
2018-12-12T22:31:01.970Z,9.40
2018-12-12T22:33:31.730Z,9.50
2018-12-12T22:36:01.385Z,9.60
2018-12-12T22:38:32.323Z,9.90
2018-12-12T22:41:02.252Z,10.20
2018-12-12T22:43:31.945Z,10.38
2018-12-12T22:46:01.587Z,9.58
2018-12-12T22:48:31.359Z,9.10
2018-12-12T22:51:01.014Z,9.13
2018-12-12T22:53:30.575Z,7.65
2018-12-12T22:56:00.562Z,7.70
2018-12-12T22:58:30.051Z,8.25
2018-12-12T23:01:07.480Z,8.40
2018-12-12T23:03:37.406Z,8.65
2018-12-12T23:06:08.200Z,8.53
2018-12-12T23:08:38.021Z,8.13
2018-12-12T23:11:07.663Z,7.92
2018-12-12T23:13:37.289Z,7.92
2018-12-12T23:16:07.094Z,8.60
2018-12-12T23:18:36.899Z,8.08
2018-12-12T23:21:06.626Z,8.33
2018-12-12T23:23:36.329Z,8.25
2018-12-12T23:26:05.938Z,8.03
2018-12-12T23:28:35.732Z,7.50
2018-12-12T23:31:05.716Z,7.70
2018-12-12T23:33:35.462Z,7.65
2018-12-12T23:36:05.065Z,8.03
2018-12-12T23:38:34.640Z,8.45
2018-12-12T23:41:05.205Z,7.45
2018-12-12T23:43:34.923Z,7.50
2018-12-12T23:46:04.501Z,8.25
2018-12-12T23:48:34.201Z,6.90
2018-12-12T23:51:03.898Z,7.55
2018-12-12T23:53:33.502Z,8.38
2018-12-12T23:56:03.025Z,8.43
2018-12-12T23:58:32.618Z,9.35
